ADDS METAR Data INFO
IDs: Format: Raw Decoded Include TAF

Data at: 0213 UTC 17 Aug 2018

PAEM 170156Z AUTO 23010KT 10SM CLR 14/06 A2996 RMK AO2 SLP205 T01390061
PAEM 170056Z AUTO 25012KT 10SM CLR 14/06 A2996 RMK AO2 SLP205 T01390056
PAEM 162356Z AUTO 24011KT 10SM CLR 14/06 A2997 RMK AO2 SLP208 T01390056 10144 20106 55000
PAEM 162248Z AUTO 24012KT 10SM FEW001 14/06 A2997 RMK AO2
PAEM 162227Z AUTO 25013KT 10SM FEW030 13/07 A2996 RMK AO2
PAEM 162217Z AUTO 25012KT 2 1/2SM HZ FEW030 13/07 A2996 RMK AO2
PAEM 162156Z AUTO 25010G15KT 10SM CLR 14/07 A2996 RMK AO2 SLP207 T01390072
PAEM 162113Z AUTO 23012KT 10SM SCT025 13/08 A2997 RMK AO2
PAEM 162106Z AUTO 24010KT 10SM BKN025 13/08 A2997 RMK AO2
PAEM 162056Z AUTO 23011KT 10SM SCT025 13/07 A2997 RMK AO2 SLP208 T01330072 58000
PAEM 161956Z AUTO 23009KT 10SM OVC090 13/08 A2997 RMK AO2 SLP208 T01280078
PAEM 161856Z AUTO 23005KT 10SM OVC080 11/08 A2997 RMK AO2 SLP209 T01110083
PAEM 161756Z AUTO 23005KT 10SM FEW001 11/08 A2997 RMK AO2 SLP208 T01060083 10106 20083 50000
PAEM 161731Z AUTO 23004KT 10SM FEW001 10/08 A2997 RMK AO2
PAEM 161656Z AUTO 23004KT 10SM BKN110 10/08 A2997 RMK AO2 SLP208 T01000078
PAEM 161556Z AUTO 00000KT 10SM CLR 09/07 A2997 RMK AO2 SLP208 T00890072
PAEM 161456Z AUTO 00000KT 10SM CLR 09/08 A2997 RMK AO2 SLP208 T00890078 58003
PAEM 161356Z AUTO 31003KT 10SM CLR 09/08 A2998 RMK AO2 SLP211 T00890078
PAEM 161256Z AUTO 30004KT 10SM SCT024 09/08 A2998 RMK AO2 SLP211 T00940078
PAEM 161156Z AUTO 26003KT 10SM CLR 10/07 A2998 RMK AO2 SLP211 7//// T01000072 10111 20083 50001
PAEM 161056Z AUTO 00000KT 10SM CLR 09/09 A2998 RMK AO2 SLPNO T00940089
PAEM 160956Z AUTO 32004KT 10SM CLR 09/08 A2998 RMK AO2 SLP212 T00890083
PAEM 160856Z AUTO 31003KT 10SM CLR 08/08 A2997 RMK AO2 SLP210 T00830078 51005
PAEM 160756Z AUTO 35003KT 10SM CLR 09/08 A2997 RMK AO2 SLP209 T00940078 401560061
PAEM 160556Z AUTO 34005KT 10SM CLR 11/08 A2996 RMK AO2 SLP205 T01110078 10156 20111 53005
PAEM 160456Z AUTO 34008KT 10SM CLR 14/07 A2995 RMK AO2 SLP202 T01390072
PAEM 160356Z AUTO 36008KT 10SM SCT038 14/07 A2994 RMK AO2 SLP200 T01440072
PAEM 160256Z AUTO 02006KT 10SM SCT037 14/07 A2994 RMK AO2 SLP200 T01440067 55001
PAEM 160156Z AUTO 36009KT 10SM FEW039 SCT070 15/06 A2994 RMK AO2 SLP199 T01500061
PAEM 160056Z AUTO 36009KT 10SM BKN039 OVC065 15/07 A2994 RMK AO2 SLP199 T01500067
PAEM 152356Z AUTO 02009KT 10SM 14/07 A2995 RMK AO2 SLP201 6//// T01390072
PAEM 152156Z AUTO 02005KT 10SM OVC060 14/07 A2995 RMK AO2 SLP202 P0001 T01390067
PAEM 152056Z AUTO 35006KT 10SM BKN046 13/07 A2995 RMK AO2 SLP200 T01330072 51003
PAEM 151956Z AUTO 04004KT 10SM FEW046 13/07 A2994 RMK AO2 SLP200 T01280067
PAEM 151856Z AUTO 33006KT 8SM BKN038 BKN070 12/08 A2994 RMK AO2 SLP199 T01220083
PAEM 151756Z AUTO 31004KT 10SM OVC065 10/08 A2994 RMK AO2 SLP197 T01000083 10100 20061 53008
PAEM 151656Z AUTO 00000KT 10SM OVC070 09/08 A2993 RMK AO2 SLP193 T00940083
PAEM 151556Z AUTO 24003KT 10SM OVC060 08/08 A2992 RMK AO2 SLP190 T00830078
PAEM 151456Z AUTO 00000KT 10SM FEW050 07/06 A2991 RMK AO2 SLP189 T00670061 53008